Time;durP1;ratioP1;P1;durP2;ratioP2;P2;SDS_P1;SDS_P2;PMS_P1;PMS_P2;Temp;Humidity;BMP_temperature;BMP_pressure;BME280_temperature;BME280_humidity;BME280_pressure;Samples;Min_cycle;Max_cycle;Signal;HPM_P1;HPM_P2
2021/07/03 00:01:55;;;;;;;6.30;5.38;;;;;;;17.75;72.64;99406.94;5037312;28;20037;-78
2021/07/03 00:04:21;;;;;;;9.68;6.50;;;;;;;17.72;72.82;99419.34;5037831;28;20049;-80
2021/07/03 00:06:47;;;;;;;8.35;5.38;;;;;;;17.55;72.66;99406.94;5071364;28;20047;-81
2021/07/03 00:09:14;;;;;;;8.57;5.65;;;;;;;17.54;73.04;99423.66;5058969;28;20135;-80
2021/07/03 00:11:40;;;;;;;8.88;6.18;;;;;;;17.46;72.88;99429.22;5039795;28;20086;-80
2021/07/03 00:14:06;;;;;;;8.48;5.40;;;;;;;17.40;73.33;99421.63;5056930;28;20050;-81
2021/07/03 00:16:33;;;;;;;7.47;5.38;;;;;;;17.37;73.46;99422.59;5056566;28;20419;-80
2021/07/03 00:18:59;;;;;;;9.07;6.43;;;;;;;17.23;73.69;99404.78;5057547;28;20047;-81
2021/07/03 00:21:25;;;;;;;8.15;6.38;;;;;;;17.25;73.64;99407.34;5057822;28;20029;-80
2021/07/03 00:23:50;;;;;;;9.27;7.15;;;;;;;17.16;73.72;99398.94;5057770;28;20106;-81
2021/07/03 00:26:16;;;;;;;10.88;7.22;;;;;;;17.17;74.08;99426.09;5056040;28;20041;-79
2021/07/03 00:28:42;;;;;;;7.82;6.32;;;;;;;17.06;74.05;99413.41;5057342;28;20047;-80
2021/07/03 00:31:08;;;;;;;7.72;6.72;;;;;;;17.07;74.12;99419.50;5057143;28;20041;-81
2021/07/03 00:33:34;;;;;;;7.97;6.20;;;;;;;17.10;74.34;99416.75;5056117;28;20067;-80
2021/07/03 00:36:01;;;;;;;10.40;7.05;;;;;;;17.15;74.64;99415.63;5040293;28;20045;-81
2021/07/03 00:38:27;;;;;;;10.32;6.65;;;;;;;17.22;74.86;99418.00;5041814;28;20045;-83
2021/07/03 00:40:53;;;;;;;9.88;7.07;;;;;;;17.20;74.78;99401.44;5062149;28;20060;-82
2021/07/03 00:43:19;;;;;;;10.60;7.20;;;;;;;17.27;74.88;99414.25;5074975;28;20024;-80
2021/07/03 00:45:45;;;;;;;10.13;6.57;;;;;;;17.28;74.85;99426.47;5091081;28;20069;-80
2021/07/03 00:48:11;;;;;;;11.73;6.78;;;;;;;17.29;75.12;99428.19;5073927;28;20042;-80
2021/07/03 00:50:37;;;;;;;12.23;6.15;;;;;;;17.34;75.03;99425.34;5065339;28;20051;-80
2021/07/03 00:53:04;;;;;;;15.07;6.65;;;;;;;17.39;75.15;99425.19;5058648;28;20033;-80
2021/07/03 00:55:33;;;;;;;9.85;6.70;;;;;;;17.37;75.08;99421.75;5056125;28;20393;-79
2021/07/03 00:58:00;;;;;;;10.43;6.00;;;;;;;17.36;74.95;99420.03;5056713;28;20469;-79
2021/07/03 01:00:32;;;;;;;10.93;6.15;;;;;;;17.43;74.98;99429.38;5056788;28;20041;-80
2021/07/03 01:03:01;;;;;;;10.30;6.00;;;;;;;17.31;75.22;99412.38;5056981;28;20053;-81
2021/07/03 01:05:27;;;;;;;7.13;5.63;;;;;;;17.49;75.32;99433.53;5054435;28;20043;-79
2021/07/03 01:07:55;;;;;;;11.20;7.35;;;;;;;17.48;75.18;99434.44;5058908;28;20069;-81
2021/07/03 01:10:28;;;;;;;11.18;6.78;;;;;;;17.52;75.24;99430.75;5061356;28;20049;-80
2021/07/03 01:13:10;;;;;;;10.65;6.45;;;;;;;17.63;75.19;99436.41;5041072;28;20048;-80
2021/07/03 01:15:36;;;;;;;12.77;6.45;;;;;;;17.65;75.08;99426.66;5072641;28;20041;-80
2021/07/03 01:18:02;;;;;;;9.50;6.43;;;;;;;17.72;75.26;99437.75;5056674;28;20054;-81
2021/07/03 01:20:29;;;;;;;10.82;7.30;;;;;;;17.74;74.92;99435.91;5071317;28;20047;-80
2021/07/03 01:22:55;;;;;;;10.93;6.40;;;;;;;17.69;75.33;99416.84;5055766;28;20049;-81
2021/07/03 01:25:22;;;;;;;10.68;6.63;;;;;;;17.75;75.04;99406.06;5056494;28;20045;-79
2021/07/03 01:28:02;;;;;;;11.93;6.97;;;;;;;17.86;75.04;99430.13;5038848;28;20041;-81
2021/07/03 01:30:32;;;;;;;8.90;6.43;;;;;;;17.86;75.13;99414.34;5038889;28;20037;-81
2021/07/03 01:32:58;;;;;;;11.23;6.30;;;;;;;17.96;74.90;99427.06;5038780;28;20037;-81
2021/07/03 01:35:27;;;;;;;11.82;6.55;;;;;;;17.99;74.83;99425.16;5056397;28;20045;-82
2021/07/03 01:37:53;;;;;;;9.95;6.60;;;;;;;17.90;74.80;99425.56;5056880;28;20037;-82
2021/07/03 01:40:19;;;;;;;8.75;6.10;;;;;;;17.85;74.76;99422.28;5038652;28;20056;-80
2021/07/03 01:42:46;;;;;;;8.80;6.35;;;;;;;17.88;74.83;99422.16;5038327;28;20045;-82
2021/07/03 01:45:14;;;;;;;8.05;6.30;;;;;;;17.85;74.91;99419.66;5038346;28;20067;-81
2021/07/03 01:47:44;;;;;;;8.32;5.90;;;;;;;17.95;74.89;99436.75;5038728;28;20078;-82
2021/07/03 01:50:12;;;;;;;9.65;5.70;;;;;;;17.94;74.68;99442.94;5071912;28;20045;-80
2021/07/03 01:52:38;;;;;;;7.28;5.18;;;;;;;17.77;74.69;99406.84;5071356;28;20131;-81
2021/07/03 01:55:08;;;;;;;10.35;5.50;;;;;;;17.90;74.59;99421.16;5038996;28;20037;-82
2021/07/03 01:57:38;;;;;;;8.50;5.53;;;;;;;17.93;74.82;99425.44;5038177;28;20131;-81
2021/07/03 02:00:24;;;;;;;9.90;5.32;;;;;;;17.81;74.60;99416.31;5038946;28;20416;-82
2021/07/03 02:03:01;;;;;;;6.30;5.45;;;;;;;17.83;74.75;99421.50;5040035;28;20508;-81
2021/07/03 02:05:47;;;;;;;8.45;5.18;;;;;;;17.91;74.76;99432.53;5079771;28;20041;-80
2021/07/03 02:08:18;;;;;;;7.40;5.10;;;;;;;17.87;74.82;99407.28;5056371;28;20099;-80
2021/07/03 02:10:50;;;;;;;8.10;4.88;;;;;;;18.12;74.72;99435.16;5020933;28;20106;-81
2021/07/03 02:13:17;;;;;;;6.93;4.53;;;;;;;18.17;74.56;99427.91;5035894;28;20048;-80
2021/07/03 02:15:43;;;;;;;7.57;5.05;;;;;;;18.22;74.53;99418.00;5037311;28;20037;-81
2021/07/03 02:18:24;;;;;;;8.95;4.93;;;;;;;18.38;74.22;99430.47;5052629;28;20060;-80
2021/07/03 02:20:51;;;;;;;8.63;5.05;;;;;;;18.46;74.05;99430.94;5036521;28;20150;-80
2021/07/03 02:23:22;;;;;;;7.65;4.85;;;;;;;18.49;74.21;99421.13;5052219;28;20131;-81
2021/07/03 02:25:53;;;;;;;7.00;4.90;;;;;;;18.69;74.02;99428.97;5054527;28;20133;-79
2021/07/03 02:28:24;;;;;;;8.00;5.13;;;;;;;18.70;73.73;99428.03;5040441;28;20040;-79
2021/07/03 02:30:57;;;;;;;7.40;4.90;;;;;;;18.78;73.47;99429.38;5045008;28;20500;-80
2021/07/03 02:33:23;;;;;;;7.03;5.18;;;;;;;18.71;73.46;99411.31;5042464;28;20045;-80
2021/07/03 02:35:53;;;;;;;8.60;5.05;;;;;;;18.82;73.29;99430.09;5055950;28;20037;-80
2021/07/03 02:38:21;;;;;;;6.47;5.00;;;;;;;18.92;73.11;99435.78;5074807;28;20051;-80
2021/07/03 02:40:48;;;;;;;10.25;5.68;;;;;;;18.95;72.81;99435.66;5041597;28;20516;-81
2021/07/03 02:43:14;;;;;;;10.23;5.30;;;;;;;18.95;72.67;99438.28;5057709;28;20044;-80
2021/07/03 02:45:43;;;;;;;5.95;5.35;;;;;;;18.92;72.78;99433.97;5041050;28;20104;-81
2021/07/03 02:48:11;;;;;;;9.05;6.40;;;;;;;18.91;72.27;99432.25;5057927;28;20049;-80
2021/07/03 02:50:37;;;;;;;9.05;6.25;;;;;;;18.96;72.40;99443.47;5059348;28;20051;-80
2021/07/03 02:53:08;;;;;;;7.82;6.15;;;;;;;18.94;72.35;99444.47;5042550;28;20045;-82
2021/07/03 02:55:35;;;;;;;9.25;6.72;;;;;;;18.96;72.12;99451.38;5073356;28;20037;-81
2021/07/03 02:58:02;;;;;;;9.52;7.10;;;;;;;18.89;71.55;99449.94;5039583;28;20179;-80
2021/07/03 03:00:31;;;;;;;10.20;6.85;;;;;;;18.90;72.04;99466.63;5056315;28;20045;-81
2021/07/03 03:02:58;;;;;;;10.30;7.60;;;;;;;18.95;71.74;99464.66;5039469;28;20044;-81
2021/07/03 03:05:24;;;;;;;7.10;6.38;;;;;;;19.03;71.61;99461.63;5039327;28;20562;-83
2021/07/03 03:07:51;;;;;;;9.38;7.15;;;;;;;19.00;71.58;99449.44;5073436;28;20181;-82
2021/07/03 03:10:20;;;;;;;7.60;6.75;;;;;;;19.07;70.87;99461.41;5057414;28;20132;-81
2021/07/03 03:12:48;;;;;;;8.07;6.72;;;;;;;19.07;70.78;99465.84;5041426;28;20140;-81
2021/07/03 03:15:18;;;;;;;8.18;5.72;;;;;;;19.09;71.20;99480.63;5058344;28;20067;-80
2021/07/03 03:17:47;;;;;;;7.95;6.28;;;;;;;18.93;70.57;99456.78;5058105;28;20052;-83
2021/07/03 03:20:14;;;;;;;8.20;6.25;;;;;;;18.99;70.98;99473.25;5041342;28;20399;-80
2021/07/03 03:22:42;;;;;;;6.80;5.75;;;;;;;18.99;71.11;99467.97;5057708;28;20048;-81
2021/07/03 03:25:09;;;;;;;7.25;6.13;;;;;;;19.05;70.95;99480.88;5056345;28;20040;-82
2021/07/03 03:27:37;;;;;;;9.15;6.22;;;;;;;19.07;71.18;99474.59;5038947;28;20033;-83
2021/07/03 03:30:05;;;;;;;11.57;5.60;;;;;;;19.17;70.89;99482.88;5038786;28;20040;-83
2021/07/03 03:32:35;;;;;;;7.72;5.63;;;;;;;19.16;70.99;99475.91;5039126;28;20041;-83
2021/07/03 03:35:03;;;;;;;6.38;5.15;;;;;;;19.30;70.38;99482.28;5023770;28;20041;-81
2021/07/03 03:37:30;;;;;;;6.53;5.57;;;;;;;19.18;70.82;99460.88;5056547;28;20420;-82
2021/07/03 03:39:56;;;;;;;6.45;5.18;;;;;;;19.27;70.19;99463.06;5055492;28;20159;-80
2021/07/03 03:42:22;;;;;;;6.72;4.97;;;;;;;19.27;69.56;99476.25;5056091;28;20045;-82
2021/07/03 03:44:48;;;;;;;7.68;5.45;;;;;;;19.16;69.69;99467.16;5054653;28;20071;-82
2021/07/03 03:47:14;;;;;;;5.38;4.85;;;;;;;19.45;70.40;99481.50;5057051;28;20389;-81
2021/07/03 03:49:44;;;;;;;6.55;5.30;;;;;;;19.23;69.41;99428.97;5055479;28;20460;-82
2021/07/03 03:52:27;;;;;;;6.10;5.13;;;;;;;19.01;69.35;99377.34;5056753;28;20148;-81
2021/07/03 03:54:56;;;;;;;7.07;4.90;;;;;;;19.35;68.57;99449.47;5055730;28;20118;-82
2021/07/03 03:57:34;;;;;;;6.07;4.97;;;;;;;19.06;69.26;99396.41;5071481;28;20068;-82
2021/07/03 04:00:10;;;;;;;5.97;4.90;;;;;;;19.75;69.36;99477.38;5038869;28;20455;-85
2021/07/03 04:02:42;;;;;;;5.43;4.88;;;;;;;19.95;68.85;99474.56;5056129;28;20512;-80
2021/07/03 04:05:09;;;;;;;7.15;4.50;;;;;;;20.16;68.61;99488.41;5038249;28;20045;-83
2021/07/03 04:07:49;;;;;;;10.15;5.03;;;;;;;20.19;68.04;99491.84;5132473;27;20407;-81
2021/07/03 04:10:18;;;;;;;8.23;4.60;;;;;;;20.23;68.24;99481.00;5115216;28;20422;-80
2021/07/03 04:12:44;;;;;;;5.15;4.47;;;;;;;20.41;68.03;99489.72;5141407;28;20032;-81
2021/07/03 04:15:12;;;;;;;5.30;4.68;;;;;;;20.40;67.38;99474.81;5137622;28;20455;-82
2021/07/03 04:17:39;;;;;;;7.72;5.32;;;;;;;20.59;66.82;99487.00;5119273;28;20146;-80
2021/07/03 04:20:07;;;;;;;7.57;5.28;;;;;;;20.59;67.12;99487.84;5141410;27;20050;-80
2021/07/03 04:22:34;;;;;;;6.20;5.35;;;;;;;20.60;66.70;99472.84;5101945;28;20046;-83
2021/07/03 04:25:02;;;;;;;6.53;5.53;;;;;;;20.92;66.73;99492.22;5123097;28;20047;-80
2021/07/03 04:27:29;;;;;;;5.57;5.07;;;;;;;20.92;66.06;99471.06;5133095;28;20031;-80
2021/07/03 04:29:55;;;;;;;6.60;5.32;;;;;;;20.91;65.34;99477.31;5131773;28;20104;-83
2021/07/03 04:32:21;;;;;;;5.63;5.03;;;;;;;20.90;65.33;99477.38;5130788;28;20444;-81
2021/07/03 04:34:47;;;;;;;6.85;5.22;;;;;;;20.80;65.40;99460.34;5131866;28;20486;-79
2021/07/03 04:37:13;;;;;;;5.95;4.45;;;;;;;20.92;64.76;99484.28;5074614;28;20040;-80
2021/07/03 04:39:39;;;;;;;6.22;4.95;;;;;;;20.86;64.90;99476.69;5091834;28;20138;-81
2021/07/03 04:42:04;;;;;;;6.35;5.50;;;;;;;20.87;64.16;99482.81;5091658;28;20055;-82
2021/07/03 04:44:31;;;;;;;6.45;5.20;;;;;;;20.75;64.64;99471.13;5107186;28;20441;-84
2021/07/03 04:47:00;;;;;;;5.35;4.85;;;;;;;20.74;64.59;99480.84;5111916;28;20070;-81
2021/07/03 04:49:36;;;;;;;7.85;5.13;;;;;;;20.74;64.94;99457.06;5084456;28;20044;-82
2021/07/03 04:52:09;;;;;;;5.93;4.53;;;;;;;20.82;65.05;99437.31;5114769;28;20487;-82
2021/07/03 04:55:16;;;;;;;8.63;6.22;;;;;;;21.30;64.36;99479.50;5098216;28;20647;-82
2021/07/03 04:58:03;;;;;;;6.75;5.65;;;;;;;21.53;64.08;99475.50;5111607;28;20040;-81
2021/07/03 05:00:40;;;;;;;6.15;5.40;;;;;;;21.01;63.52;99358.63;5093378;28;20044;-81
2021/07/03 05:03:15;;;;;;;5.80;5.13;;;;;;;22.11;63.35;99475.59;5081377;28;20040;-82
2021/07/03 05:05:58;;;;;;;6.88;4.97;;;;;;;21.88;62.57;99397.53;5092506;28;20084;-81
2021/07/03 05:08:30;;;;;;;7.32;4.75;;;;;;;21.99;62.24;99357.13;5097319;28;20044;-81
2021/07/03 05:11:08;;;;;;;7.03;5.15;;;;;;;23.04;61.14;99474.16;5061218;28;20056;-83
2021/07/03 05:13:35;;;;;;;6.28;5.07;;;;;;;22.71;60.34;99371.06;5096762;28;20090;-81
2021/07/03 05:16:01;;;;;;;4.90;4.40;;;;;;;23.13;60.12;99396.63;5078723;28;20561;-81
2021/07/03 05:18:27;;;;;;;6.50;4.40;;;;;;;23.85;59.71;99449.22;5084151;28;20092;-82
2021/07/03 05:20:54;;;;;;;5.60;4.85;;;;;;;24.24;58.50;99440.38;5078666;28;20032;-81
2021/07/03 05:23:20;;;;;;;5.90;5.07;;;;;;;24.29;57.91;99406.31;5079148;28;20033;-80
2021/07/03 05:25:46;;;;;;;8.50;4.97;;;;;;;25.19;57.06;99474.25;5080236;28;20071;-82
2021/07/03 05:28:13;;;;;;;5.63;4.80;;;;;;;25.42;55.91;99457.44;5080651;28;20044;-79
2021/07/03 05:30:40;;;;;;;7.45;4.97;;;;;;;25.64;54.37;99455.78;5079025;28;20078;-81
2021/07/03 05:33:06;;;;;;;5.32;4.35;;;;;;;25.54;54.55;99447.66;5078141;28;20044;-79
2021/07/03 05:35:32;;;;;;;4.32;3.95;;;;;;;25.74;52.58;99466.56;5060555;28;20039;-81
2021/07/03 05:37:58;;;;;;;4.43;4.03;;;;;;;25.89;52.90;99469.00;5060942;28;20044;-81
2021/07/03 05:40:24;;;;;;;5.07;4.07;;;;;;;25.98;52.41;99479.78;5079710;28;20044;-81
2021/07/03 05:42:51;;;;;;;4.53;4.13;;;;;;;26.02;51.56;99448.41;5081533;28;20353;-82
2021/07/03 05:45:16;;;;;;;6.82;4.07;;;;;;;26.26;51.72;99466.13;5083141;28;20423;-83
2021/07/03 05:47:50;;;;;;;6.38;4.15;;;;;;;26.46;51.45;99473.34;5101675;28;20040;-82
2021/07/03 05:50:21;;;;;;;5.97;4.35;;;;;;;26.63;50.31;99457.78;5107674;28;20040;-80
2021/07/03 05:52:47;;;;;;;6.57;4.10;;;;;;;26.78;50.15;99447.69;5106911;28;20073;-80
2021/07/03 05:55:13;;;;;;;5.65;3.63;;;;;;;27.73;50.26;99461.22;5099967;28;20040;-81
2021/07/03 05:57:39;;;;;;;6.35;3.60;;;;;;;29.58;48.56;99461.72;5097296;28;20459;-81
2021/07/03 06:00:09;;;;;;;4.63;3.40;;;;;;;31.59;45.87;99454.66;5084207;28;20032;-82
2021/07/03 06:02:41;;;;;;;5.10;3.47;;;;;;;32.94;43.40;99447.78;5097070;28;20108;-81
2021/07/03 06:05:08;;;;;;;3.90;3.60;;;;;;;33.70;40.02;99420.59;5114567;28;20033;-81
2021/07/03 06:07:34;;;;;;;3.85;3.40;;;;;;;34.38;37.18;99423.69;5096112;28;20048;-80
2021/07/03 06:10:00;;;;;;;3.88;3.58;;;;;;;35.55;35.09;99435.34;5096249;28;20091;-80
2021/07/03 06:12:26;;;;;;;5.43;3.65;;;;;;;36.82;34.69;99430.63;5096189;28;20028;-81
2021/07/03 06:14:52;;;;;;;4.32;2.90;;;;;;;37.79;32.33;99408.41;5095664;28;20083;-82
2021/07/03 06:17:19;;;;;;;3.10;2.65;;;;;;;38.89;30.69;99444.75;5096384;28;20096;-82
2021/07/03 06:19:45;;;;;;;5.63;2.65;;;;;;;38.51;30.42;99440.72;5096656;28;20019;-81
2021/07/03 06:22:13;;;;;;;13.57;3.20;;;;;;;39.78;29.42;99437.19;5095793;28;20028;-81
2021/07/03 06:24:40;;;;;;;8.25;2.40;;;;;;;40.96;25.70;99448.72;5075232;28;20107;-80
2021/07/03 06:27:07;;;;;;;11.65;2.65;;;;;;;40.42;26.21;99448.22;5096498;28;20056;-80
2021/07/03 06:29:34;;;;;;;4.25;2.40;;;;;;;41.01;25.88;99450.78;5082257;28;20044;-81
2021/07/03 06:36:13;;;;;;;3.20;2.30;;;;;;;41.47;23.66;99398.75;5074786;28;20515;-81
2021/07/03 06:39:43;;;;;;;4.25;2.78;;;;;;;40.45;24.61;99363.31;5072240;28;20044;-82
2021/07/03 06:43:40;;;;;;;3.75;2.80;;;;;;;39.08;25.51;99396.88;5014142;28;20073;-81
2021/07/03 06:46:15;;;;;;;4.68;2.70;;;;;;;38.68;25.77;99393.06;5092475;28;20048;-81
2021/07/03 06:53:18;;;;;;;;;;;;;;;;;;;;;
2021/07/03 06:56:21;;;;;;;5.97;2.85;;;;;;;36.83;27.05;99459.41;5078931;28;20042;-81
2021/07/03 06:59:46;;;;;;;8.77;2.92;;;;;;;35.23;27.65;99339.97;5079389;28;20048;-81
2021/07/03 07:02:25;;;;;;;4.95;2.63;;;;;;;36.21;28.47;99388.53;5095206;28;20036;-79
2021/07/03 07:05:13;;;;;;;4.00;2.50;;;;;;;38.08;25.50;99420.06;5079145;28;20040;-80
2021/07/03 07:07:42;;;;;;;3.47;2.55;;;;;;;40.24;24.79;99427.16;5078756;28;20043;-81
2021/07/03 07:11:00;;;;;;;7.00;2.78;;;;;;;42.45;22.60;99388.72;5065399;28;20480;-81
2021/07/03 07:13:55;;;;;;;3.78;2.65;;;;;;;44.51;20.92;99416.25;5081499;28;20039;-82
2021/07/03 07:17:11;;;;;;;4.35;2.70;;;;;;;43.82;20.80;99443.63;5066065;28;20569;-82
2021/07/03 07:19:53;;;;;;;2.63;2.40;;;;;;;41.85;20.91;99390.34;5084155;28;20040;-83
2021/07/03 07:22:26;;;;;;;3.42;2.90;;;;;;;39.66;22.78;99352.59;5067193;28;20146;-81
2021/07/03 07:24:52;;;;;;;5.15;3.33;;;;;;;38.82;23.48;99450.16;5094447;28;20081;-80
2021/07/03 07:27:18;;;;;;;4.70;3.15;;;;;;;37.69;23.91;99446.78;5095432;28;20039;-82
2021/07/03 07:29:44;;;;;;;2.88;2.67;;;;;;;36.72;25.25;99422.84;5095031;28;20474;-80
2021/07/03 07:32:10;;;;;;;8.38;2.50;;;;;;;35.97;25.38;99430.31;5095185;28;20050;-81
2021/07/03 07:34:37;;;;;;;4.45;2.90;;;;;;;35.08;26.86;99438.13;5096073;28;20040;-81
2021/07/03 07:37:05;;;;;;;5.05;2.90;;;;;;;34.04;28.03;99414.13;5078503;28;20046;-81
2021/07/03 07:39:32;;;;;;;3.67;3.08;;;;;;;33.38;28.85;99443.94;5094492;28;20581;-80
2021/07/03 07:41:58;;;;;;;3.25;2.95;;;;;;;32.69;29.92;99450.44;5076328;28;20035;-81
2021/07/03 07:44:30;;;;;;;3.60;2.75;;;;;;;31.99;31.09;99439.78;5092681;28;20567;-80
2021/07/03 07:46:56;;;;;;;5.97;3.20;;;;;;;31.62;30.96;99432.84;5092713;28;20040;-80
2021/07/03 07:49:22;;;;;;;6.93;3.17;;;;;;;33.65;31.30;99440.00;5093474;28;20031;-81
2021/07/03 07:51:48;;;;;;;6.25;3.38;;;;;;;36.65;28.41;99412.97;5094687;28;20040;-81
2021/07/03 07:54:14;;;;;;;4.50;3.40;;;;;;;39.02;25.72;99431.19;5077062;28;20040;-81
2021/07/03 07:56:59;;;;;;;4.60;2.90;;;;;;;40.53;23.55;99421.31;5095801;28;20123;-80
2021/07/03 07:59:51;;;;;;;6.35;3.33;;;;;;;42.06;22.25;99365.50;5066910;28;20040;-80
2021/07/03 08:02:17;;;;;;;2.90;2.63;;;;;;;43.63;20.61;99413.69;5094232;28;20044;-80
2021/07/03 08:04:48;;;;;;;6.07;2.90;;;;;;;43.26;20.16;99384.66;5094177;28;20512;-80
2021/07/03 08:07:14;;;;;;;3.97;3.45;;;;;;;42.62;20.34;99428.22;5094741;28;20056;-79
2021/07/03 08:09:44;;;;;;;3.03;2.72;;;;;;;41.16;21.17;99430.56;5095127;28;20048;-79
2021/07/03 08:12:11;;;;;;;4.10;3.05;;;;;;;40.55;21.72;99430.13;5094925;28;20040;-80
2021/07/03 08:14:37;;;;;;;3.80;3.03;;;;;;;39.62;22.51;99420.22;5095519;28;20154;-80
2021/07/03 08:17:03;;;;;;;3.58;3.28;;;;;;;39.02;22.84;99412.13;5096544;28;20039;-81
2021/07/03 08:19:29;;;;;;;3.30;3.00;;;;;;;38.91;23.60;99423.63;5094209;28;20040;-80
2021/07/03 08:21:58;;;;;;;4.22;2.80;;;;;;;40.24;22.47;99434.50;5077821;28;20055;-82
2021/07/03 08:24:25;;;;;;;3.90;2.65;;;;;;;42.26;20.98;99436.28;5100718;28;20066;-83
2021/07/03 08:27:13;;;;;;;4.50;2.95;;;;;;;44.20;18.84;99425.81;5096995;28;20054;-81
2021/07/03 08:30:07;;;;;;;5.95;2.85;;;;;;;45.82;17.85;99417.94;5094650;28;20036;-82
2021/07/03 08:32:33;;;;;;;3.15;2.80;;;;;;;46.38;16.91;99421.56;5062843;28;20036;-82
2021/07/03 08:35:02;;;;;;;3.80;3.40;;;;;;;46.80;16.44;99412.59;5095213;28;20040;-83
2021/07/03 08:37:28;;;;;;;5.00;2.80;;;;;;;47.26;16.30;99431.44;5062344;28;20040;-83
2021/07/03 08:39:53;;;;;;;3.70;2.75;;;;;;;47.44;15.62;99443.91;5074466;28;20051;-82
2021/07/03 08:42:19;;;;;;;3.58;2.70;;;;;;;45.84;15.86;99428.69;5076639;28;20774;-82
2021/07/03 08:44:47;;;;;;;4.28;2.50;;;;;;;43.65;17.39;99438.91;5089431;28;20048;-80
2021/07/03 08:47:21;;;;;;;17.08;3.40;;;;;;;41.52;19.37;99429.78;5058298;28;20033;-84
2021/07/03 08:50:05;;;;;;;12.93;3.08;;;;;;;39.78;20.93;99452.66;5074997;28;20595;-83
2021/07/03 08:52:31;;;;;;;8.52;2.85;;;;;;;37.88;21.91;99433.50;5058381;28;20040;-77
2021/07/03 08:55:19;;;;;;;6.43;2.70;;;;;;;36.48;23.71;99454.69;5096280;28;20146;-80
2021/07/03 08:57:53;;;;;;;7.93;3.03;;;;;;;35.36;24.34;99433.97;5087879;28;20123;-80
2021/07/03 09:00:28;;;;;;;3.00;2.25;;;;;;;34.81;25.85;99448.44;5104907;28;20111;-81
2021/07/03 09:02:54;;;;;;;4.75;2.80;;;;;;;34.23;26.36;99456.00;5106096;28;20112;-79
2021/07/03 09:05:28;;;;;;;4.72;2.80;;;;;;;33.57;27.61;99437.31;5091045;28;20384;-79
2021/07/03 09:08:03;;;;;;;3.30;2.40;;;;;;;32.98;27.93;99455.41;5098129;28;20555;-78
2021/07/03 09:10:30;;;;;;;3.47;2.42;;;;;;;32.72;28.21;99450.97;5093190;28;20091;-80
2021/07/03 09:13:01;;;;;;;4.38;2.30;;;;;;;32.51;28.60;99427.19;5096882;28;20530;-78
2021/07/03 09:15:36;;;;;;;3.67;2.60;;;;;;;32.33;28.31;99462.28;5099568;28;20047;-79
2021/07/03 09:18:08;;;;;;;3.00;2.65;;;;;;;32.00;29.71;99454.91;5097665;28;20502;-82
2021/07/03 09:21:10;;;;;;;4.10;2.80;;;;;;;31.26;30.23;99446.38;5093279;28;20138;-80
2021/07/03 09:23:49;;;;;;;7.75;3.33;;;;;;;30.86;31.66;99440.47;5041810;28;20317;-79
2021/07/03 09:26:14;;;;;;;4.43;3.33;;;;;;;30.57;31.69;99459.50;5090126;28;20044;-80
2021/07/03 09:28:45;;;;;;;4.05;3.03;;;;;;;30.32;33.00;99468.09;5081425;28;20377;-79
2021/07/03 09:31:15;;;;;;;5.15;3.40;;;;;;;30.16;32.99;99468.72;5110809;28;20046;-81
2021/07/03 09:33:47;;;;;;;4.78;3.28;;;;;;;29.99;33.08;99454.25;5122874;28;20147;-80
2021/07/03 09:36:21;;;;;;;5.47;3.17;;;;;;;29.69;33.91;99461.53;5099229;28;20032;-80
2021/07/03 09:38:48;;;;;;;5.03;3.60;;;;;;;29.40;33.78;99466.94;5087018;28;20037;-79
2021/07/03 09:41:20;;;;;;;5.00;3.65;;;;;;;29.27;34.73;99468.09;5124604;28;20051;-79
2021/07/03 09:43:49;;;;;;;5.90;3.58;;;;;;;29.19;35.28;99472.47;5114316;28;20032;-78
2021/07/03 09:46:28;;;;;;;4.90;3.35;;;;;;;29.12;35.44;99470.34;5097015;28;20046;-80
2021/07/03 09:48:58;;;;;;;7.07;3.67;;;;;;;29.03;35.58;99440.91;5093998;28;20060;-80
2021/07/03 09:51:29;;;;;;;4.07;3.55;;;;;;;29.03;35.00;99448.94;5093954;28;20055;-79
2021/07/03 09:53:56;;;;;;;;;;;;;;;28.92;35.62;99468.66;5113654;28;20044;-79
2021/07/03 09:56:22;;;;;;;3.53;3.22;;;;;;;28.76;35.97;99448.66;5080141;28;19942;-78
2021/07/03 09:58:48;;;;;;;6.20;3.17;;;;;;;29.09;35.75;99456.41;5095485;28;20052;-80
2021/07/03 10:01:15;;;;;;;5.50;3.58;;;;;;;29.28;35.04;99456.38;5094074;28;20043;-82
2021/07/03 10:03:42;;;;;;;5.88;2.90;;;;;;;29.35;35.42;99448.59;5110533;28;20036;-81
2021/07/03 10:06:14;;;;;;;3.88;2.88;;;;;;;29.17;34.83;99451.16;5109869;28;20044;-82
2021/07/03 10:08:45;;;;;;;3.65;3.10;;;;;;;29.37;35.26;99468.09;5099019;28;20039;-82
2021/07/03 10:11:17;;;;;;;4.25;2.80;;;;;;;29.56;35.13;99444.94;5099012;28;20046;-80
2021/07/03 10:13:44;;;;;;;4.63;3.22;;;;;;;29.59;34.44;99450.00;5095602;28;20032;-79
2021/07/03 10:16:13;;;;;;;5.88;3.20;;;;;;;29.06;35.95;99464.72;5098606;28;20043;-80
2021/07/03 10:18:40;;;;;;;4.97;3.42;;;;;;;28.60;37.06;99459.00;5108824;28;20047;-80
2021/07/03 10:21:13;;;;;;;3.88;3.08;;;;;;;28.28;37.26;99471.59;5099390;28;20035;-80
2021/07/03 10:23:44;;;;;;;6.60;2.97;;;;;;;27.87;38.04;99468.91;5099426;28;20117;-80
2021/07/03 10:26:10;;;;;;;;;;;;;;;27.63;38.70;99466.50;5097867;28;20051;-80
2021/07/03 10:28:41;;;;;;;6.15;3.15;;;;;;;27.26;39.47;99456.25;5078124;28;20390;-79
2021/07/03 10:31:10;;;;;;;8.98;3.38;;;;;;;27.12;39.67;99465.41;5095674;28;20081;-80
2021/07/03 10:34:02;;;;;;;9.07;3.63;;;;;;;26.95;40.00;99464.16;5094734;28;20127;-81
2021/07/03 10:36:31;;;;;;;4.45;3.30;;;;;;;27.03;40.49;99462.53;5080168;28;20072;-79
2021/07/03 10:39:01;;;;;;;5.90;3.88;;;;;;;27.14;40.53;99468.81;5077202;28;20504;-81
2021/07/03 10:41:29;;;;;;;4.82;3.72;;;;;;;27.06;40.70;99480.97;5060434;28;20028;-79
2021/07/03 10:44:07;;;;;;;5.30;3.58;;;;;;;27.10;40.68;99468.25;5090474;28;20046;-80
2021/07/03 10:46:48;;;;;;;4.55;3.35;;;;;;;26.91;40.71;99429.75;5101718;28;20054;-80
2021/07/03 10:49:19;;;;;;;4.40;3.45;;;;;;;27.39;40.42;99478.25;5097209;28;20127;-80
2021/07/03 10:51:49;;;;;;;4.35;3.22;;;;;;;27.52;40.83;99472.75;5095558;28;20429;-80
2021/07/03 10:54:25;;;;;;;6.23;3.30;;;;;;;27.66;40.10;99482.28;5078554;28;20073;-79
2021/07/03 10:57:01;;;;;;;4.18;3.00;;;;;;;27.67;39.65;99467.94;5095220;28;20270;-80
2021/07/03 10:59:28;;;;;;;5.57;3.40;;;;;;;28.04;39.83;99477.25;5099757;28;20082;-82
2021/07/03 11:02:09;;;;;;;4.00;2.83;;;;;;;28.30;39.47;99483.00;5061357;28;20047;-81
2021/07/03 11:04:48;;;;;;;3.45;2.88;;;;;;;28.51;38.71;99482.94;5096492;28;20127;-81
2021/07/03 11:07:20;;;;;;;4.35;2.58;;;;;;;28.59;38.99;99473.34;5077681;28;20051;-81
2021/07/03 11:09:48;;;;;;;3.80;3.25;;;;;;;28.65;38.60;99472.81;5096338;28;20499;-83
2021/07/03 11:12:16;;;;;;;3.45;2.80;;;;;;;28.58;38.19;99461.81;5097215;28;20044;-81
2021/07/03 11:14:54;;;;;;;3.58;2.80;;;;;;;28.33;38.57;99455.16;5095501;28;20080;-81
2021/07/03 11:17:22;;;;;;;4.80;2.55;;;;;;;28.19;38.55;99461.72;5095184;28;20040;-80
2021/07/03 11:19:52;;;;;;;6.25;2.92;;;;;;;28.00;38.16;99457.97;5095386;28;20044;-80
2021/07/03 11:22:23;;;;;;;5.88;2.95;;;;;;;27.83;39.05;99459.44;5096704;28;20039;-79
2021/07/03 11:24:55;;;;;;;3.63;2.65;;;;;;;27.87;39.01;99463.53;5107940;28;20103;-81
2021/07/03 11:27:32;;;;;;;3.67;2.90;;;;;;;27.89;38.81;99461.59;5078406;28;20131;-78
2021/07/03 11:30:00;;;;;;;3.20;2.90;;;;;;;27.73;39.01;99439.81;5092860;28;20036;-80
2021/07/03 11:32:28;;;;;;;3.30;3.00;;;;;;;27.98;38.85;99464.41;5103032;28;20051;-82
2021/07/03 11:35:00;;;;;;;4.88;3.08;;;;;;;27.76;38.85;99434.22;5098967;28;20032;-79
2021/07/03 11:37:32;;;;;;;4.25;3.10;;;;;;;28.07;38.35;99461.78;5057182;28;20036;-82
2021/07/03 11:40:04;;;;;;;5.70;2.78;;;;;;;28.17;38.37;99469.88;5072978;28;20044;-82
2021/07/03 11:42:35;;;;;;;4.97;2.80;;;;;;;28.13;38.93;99455.09;5073777;28;20123;-81
2021/07/03 11:45:03;;;;;;;4.77;3.47;;;;;;;28.04;38.77;99463.91;5094171;28;20131;-81
2021/07/03 11:47:35;;;;;;;4.15;2.92;;;;;;;28.18;38.80;99470.72;5095176;28;20040;-80
2021/07/03 11:50:03;;;;;;;3.00;2.63;;;;;;;28.43;38.74;99455.19;5094161;28;20145;-79
2021/07/03 11:52:40;;;;;;;13.02;3.53;;;;;;;28.58;37.79;99451.13;5094856;28;20047;-81
2021/07/03 11:55:07;;;;;;;5.72;3.00;;;;;;;28.43;37.55;99437.28;5096238;28;20131;-82
2021/07/03 11:57:41;;;;;;;4.70;2.45;;;;;;;28.16;38.05;99452.13;5077275;28;20521;-78
2021/07/03 12:00:11;;;;;;;5.03;2.72;;;;;;;27.94;38.01;99443.31;5094427;28;20384;-81
2021/07/03 12:02:38;;;;;;;9.52;2.92;;;;;;;27.77;38.09;99451.94;5094814;28;20176;-80